Changbai, China
Current Conditions -  °F | °C
As of 3:00 PM on Sunday 21 Dec 2014 (Local Time) from KQEI Reporting Station
Few Clouds Few Clouds  
Wind Chill: 25°   Ceiling: Unl
Heat Index: 25°   Visibility: 6mi
Dew Point:   Wind: 3mph
Humidity: 43%   Direction: 180°S
Pressure: 30.07"   Gusts: 12mph
Location:  41.43°N, 128.14°E
Report Text: KQEI 210700Z AUTO 18003G10KT 9999 FEW046 M04/M15 A3007 RMK A02 TSNO
Loading
Personal Weather Stations






























Interactive Weather Map New forecast layout! Learn more

10-Day Weather Forecast

Advertisements
Track Severe Weather on mobile